Pembroke, Georgia
Current Conditions -  °F | °C
As of 1:35 AM on Wednesday 26 Nov 2014 (Local Time) from KCWV Reporting Station
Drizzle Drizzle  
Wind Chill: 10°   Ceiling: 800
Heat Index: 10°   Visibility: 5mi
Dew Point: 10°   Wind: 6mph
Humidity: 100%   Direction: 320°NW
Pressure: 29.91"   Gusts: NA
Location:  32.14°N, 81.62°W
Report Text: KCWV 260635Z AUTO 32005KT 5SM DZ OVC008 10/10 A2991 RMK AO2
Loading
Personal Weather Stations






























Interactive Weather Map New forecast layout! Learn more

10-Day Weather Forecast

Advertisements
Track Severe Weather on mobile